sensor_id;sensor_type;location;lat;lon;timestamp;P1;durP1;ratioP1;P2;durP2;ratioP2
23187;SDS011;11762;59.878;17.686;2023-11-21T00:01:25;1.80;;;0.83;;
23187;SDS011;11762;59.878;17.686;2023-11-21T00:03:52;1.50;;;0.70;;
23187;SDS011;11762;59.878;17.686;2023-11-21T00:06:21;1.27;;;0.90;;
23187;SDS011;11762;59.878;17.686;2023-11-21T00:08:48;1.20;;;0.70;;
23187;SDS011;11762;59.878;17.686;2023-11-21T00:11:15;1.40;;;0.90;;
23187;SDS011;11762;59.878;17.686;2023-11-21T00:13:42;1.70;;;0.83;;
23187;SDS011;11762;59.878;17.686;2023-11-21T00:16:09;1.50;;;0.80;;
23187;SDS011;11762;59.878;17.686;2023-11-21T00:18:36;1.30;;;0.70;;
23187;SDS011;11762;59.878;17.686;2023-11-21T00:21:03;1.97;;;0.80;;
23187;SDS011;11762;59.878;17.686;2023-11-21T00:23:31;1.80;;;1.10;;
23187;SDS011;11762;59.878;17.686;2023-11-21T00:25:58;2.13;;;0.77;;
23187;SDS011;11762;59.878;17.686;2023-11-21T00:28:25;1.13;;;0.80;;
23187;SDS011;11762;59.878;17.686;2023-11-21T00:30:53;4.93;;;0.87;;
23187;SDS011;11762;59.878;17.686;2023-11-21T00:33:20;1.90;;;1.10;;
23187;SDS011;11762;59.878;17.686;2023-11-21T00:35:47;1.50;;;0.90;;
23187;SDS011;11762;59.878;17.686;2023-11-21T00:38:14;1.27;;;0.70;;
23187;SDS011;11762;59.878;17.686;2023-11-21T00:40:42;1.60;;;0.70;;
23187;SDS011;11762;59.878;17.686;2023-11-21T00:43:09;1.37;;;0.90;;
23187;SDS011;11762;59.878;17.686;2023-11-21T00:45:36;1.43;;;0.90;;
23187;SDS011;11762;59.878;17.686;2023-11-21T00:48:03;1.70;;;0.80;;
23187;SDS011;11762;59.878;17.686;2023-11-21T00:50:30;3.27;;;0.80;;
23187;SDS011;11762;59.878;17.686;2023-11-21T00:52:57;2.00;;;0.90;;
23187;SDS011;11762;59.878;17.686;2023-11-21T00:55:24;1.37;;;0.80;;
23187;SDS011;11762;59.878;17.686;2023-11-21T00:57:52;1.67;;;0.97;;
23187;SDS011;11762;59.878;17.686;2023-11-21T01:00:20;1.73;;;1.03;;
23187;SDS011;11762;59.878;17.686;2023-11-21T01:02:47;2.07;;;0.97;;
23187;SDS011;11762;59.878;17.686;2023-11-21T01:05:14;5.83;;;1.10;;
23187;SDS011;11762;59.878;17.686;2023-11-21T01:07:41;1.50;;;0.80;;
23187;SDS011;11762;59.878;17.686;2023-11-21T01:10:08;1.40;;;0.90;;
23187;SDS011;11762;59.878;17.686;2023-11-21T01:12:35;2.07;;;1.00;;
23187;SDS011;11762;59.878;17.686;2023-11-21T01:15:05;2.63;;;1.20;;
23187;SDS011;11762;59.878;17.686;2023-11-21T01:17:33;3.33;;;1.10;;
23187;SDS011;11762;59.878;17.686;2023-11-21T01:20:00;2.23;;;1.13;;
23187;SDS011;11762;59.878;17.686;2023-11-21T01:22:28;2.37;;;1.00;;
23187;SDS011;11762;59.878;17.686;2023-11-21T01:24:55;2.10;;;0.87;;
23187;SDS011;11762;59.878;17.686;2023-11-21T01:27:23;3.10;;;1.13;;
23187;SDS011;11762;59.878;17.686;2023-11-21T01:29:50;1.50;;;0.97;;
23187;SDS011;11762;59.878;17.686;2023-11-21T01:32:20;2.00;;;1.20;;
23187;SDS011;11762;59.878;17.686;2023-11-21T01:34:47;2.13;;;1.10;;
23187;SDS011;11762;59.878;17.686;2023-11-21T01:37:14;2.50;;;1.27;;
23187;SDS011;11762;59.878;17.686;2023-11-21T01:39:42;1.73;;;1.10;;
23187;SDS011;11762;59.878;17.686;2023-11-21T01:42:10;3.43;;;1.17;;
23187;SDS011;11762;59.878;17.686;2023-11-21T01:44:38;1.80;;;1.10;;
23187;SDS011;11762;59.878;17.686;2023-11-21T01:47:05;1.77;;;0.90;;
23187;SDS011;11762;59.878;17.686;2023-11-21T01:49:33;3.33;;;1.33;;
23187;SDS011;11762;59.878;17.686;2023-11-21T01:52:01;3.07;;;1.30;;
23187;SDS011;11762;59.878;17.686;2023-11-21T01:54:29;1.93;;;1.10;;
23187;SDS011;11762;59.878;17.686;2023-11-21T01:56:57;2.90;;;1.47;;
23187;SDS011;11762;59.878;17.686;2023-11-21T01:59:29;2.63;;;1.17;;
23187;SDS011;11762;59.878;17.686;2023-11-21T02:02:02;2.13;;;1.30;;
23187;SDS011;11762;59.878;17.686;2023-11-21T02:04:30;5.10;;;1.67;;
23187;SDS011;11762;59.878;17.686;2023-11-21T02:06:58;2.17;;;1.10;;
23187;SDS011;11762;59.878;17.686;2023-11-21T02:09:25;2.73;;;1.50;;
23187;SDS011;11762;59.878;17.686;2023-11-21T02:11:53;2.53;;;1.60;;
23187;SDS011;11762;59.878;17.686;2023-11-21T02:14:20;2.07;;;1.20;;
23187;SDS011;11762;59.878;17.686;2023-11-21T02:16:47;2.37;;;1.60;;
23187;SDS011;11762;59.878;17.686;2023-11-21T02:19:15;2.07;;;1.20;;
23187;SDS011;11762;59.878;17.686;2023-11-21T02:21:50;1.93;;;1.00;;
23187;SDS011;11762;59.878;17.686;2023-11-21T02:24:20;4.23;;;1.57;;
23187;SDS011;11762;59.878;17.686;2023-11-21T09:06:43;13.63;;;6.20;;
23187;SDS011;11762;59.878;17.686;2023-11-21T09:09:10;13.70;;;7.03;;
23187;SDS011;11762;59.878;17.686;2023-11-21T09:11:37;10.70;;;6.03;;
23187;SDS011;11762;59.878;17.686;2023-11-21T09:14:04;15.03;;;7.47;;
23187;SDS011;11762;59.878;17.686;2023-11-21T09:16:31;11.33;;;7.27;;
23187;SDS011;11762;59.878;17.686;2023-11-21T09:18:58;14.57;;;7.30;;
23187;SDS011;11762;59.878;17.686;2023-11-21T09:21:25;12.87;;;7.13;;
23187;SDS011;11762;59.878;17.686;2023-11-21T09:23:54;16.50;;;6.87;;
23187;SDS011;11762;59.878;17.686;2023-11-21T09:26:21;11.63;;;7.03;;
23187;SDS011;11762;59.878;17.686;2023-11-21T09:28:48;16.97;;;6.50;;
23187;SDS011;11762;59.878;17.686;2023-11-21T09:31:15;14.00;;;6.63;;
23187;SDS011;11762;59.878;17.686;2023-11-21T09:33:42;12.60;;;7.10;;
23187;SDS011;11762;59.878;17.686;2023-11-21T09:36:11;15.50;;;6.77;;
23187;SDS011;11762;59.878;17.686;2023-11-21T09:38:39;11.30;;;6.93;;
23187;SDS011;11762;59.878;17.686;2023-11-21T09:41:10;9.93;;;6.17;;
23187;SDS011;11762;59.878;17.686;2023-11-21T09:43:46;14.40;;;6.40;;
23187;SDS011;11762;59.878;17.686;2023-11-21T09:46:18;10.63;;;6.00;;
23187;SDS011;11762;59.878;17.686;2023-11-21T09:48:50;13.67;;;5.60;;
23187;SDS011;11762;59.878;17.686;2023-11-21T09:51:18;12.70;;;5.83;;
23187;SDS011;11762;59.878;17.686;2023-11-21T09:53:48;13.27;;;6.17;;
23187;SDS011;11762;59.878;17.686;2023-11-21T09:56:19;11.57;;;6.27;;
23187;SDS011;11762;59.878;17.686;2023-11-21T09:58:50;11.43;;;6.47;;
23187;SDS011;11762;59.878;17.686;2023-11-21T10:01:18;10.03;;;5.77;;
23187;SDS011;11762;59.878;17.686;2023-11-21T10:03:47;11.70;;;5.83;;
23187;SDS011;11762;59.878;17.686;2023-11-21T10:06:15;12.47;;;6.10;;
23187;SDS011;11762;59.878;17.686;2023-11-21T10:08:44;12.47;;;6.10;;
23187;SDS011;11762;59.878;17.686;2023-11-21T10:11:13;14.17;;;5.43;;
23187;SDS011;11762;59.878;17.686;2023-11-21T10:13:43;10.43;;;5.23;;
23187;SDS011;11762;59.878;17.686;2023-11-21T10:16:12;11.00;;;5.17;;
23187;SDS011;11762;59.878;17.686;2023-11-21T10:18:42;10.00;;;5.13;;
23187;SDS011;11762;59.878;17.686;2023-11-21T10:21:11;11.40;;;6.03;;
23187;SDS011;11762;59.878;17.686;2023-11-21T10:23:38;12.87;;;5.87;;
23187;SDS011;11762;59.878;17.686;2023-11-21T10:26:06;13.33;;;5.43;;
23187;SDS011;11762;59.878;17.686;2023-11-21T10:28:35;10.03;;;5.10;;
23187;SDS011;11762;59.878;17.686;2023-11-21T10:31:07;8.87;;;4.60;;
23187;SDS011;11762;59.878;17.686;2023-11-21T10:33:34;13.83;;;5.63;;
23187;SDS011;11762;59.878;17.686;2023-11-21T10:36:01;12.10;;;5.57;;
23187;SDS011;11762;59.878;17.686;2023-11-21T10:38:28;10.00;;;5.50;;
23187;SDS011;11762;59.878;17.686;2023-11-21T10:41:09;9.87;;;5.87;;
23187;SDS011;11762;59.878;17.686;2023-11-21T10:43:40;11.03;;;5.43;;
23187;SDS011;11762;59.878;17.686;2023-11-21T10:46:09;13.07;;;6.00;;
23187;SDS011;11762;59.878;17.686;2023-11-21T10:48:36;13.70;;;6.20;;
23187;SDS011;11762;59.878;17.686;2023-11-21T10:51:06;12.70;;;6.27;;
23187;SDS011;11762;59.878;17.686;2023-11-21T10:53:35;14.93;;;6.67;;
23187;SDS011;11762;59.878;17.686;2023-11-21T10:56:06;12.63;;;6.53;;
23187;SDS011;11762;59.878;17.686;2023-11-21T10:58:36;11.20;;;5.67;;
23187;SDS011;11762;59.878;17.686;2023-11-21T11:01:05;14.40;;;5.83;;
23187;SDS011;11762;59.878;17.686;2023-11-21T11:03:37;15.23;;;6.43;;
23187;SDS011;11762;59.878;17.686;2023-11-21T11:06:05;13.50;;;6.00;;
23187;SDS011;11762;59.878;17.686;2023-11-21T11:08:36;11.60;;;5.97;;
23187;SDS011;11762;59.878;17.686;2023-11-21T11:11:04;11.40;;;6.00;;
23187;SDS011;11762;59.878;17.686;2023-11-21T11:13:31;12.77;;;6.30;;
23187;SDS011;11762;59.878;17.686;2023-11-21T11:15:59;12.63;;;5.83;;
23187;SDS011;11762;59.878;17.686;2023-11-21T11:18:27;11.30;;;5.90;;
23187;SDS011;11762;59.878;17.686;2023-11-21T11:20:57;12.97;;;5.60;;
23187;SDS011;11762;59.878;17.686;2023-11-21T11:23:36;10.60;;;5.33;;
23187;SDS011;11762;59.878;17.686;2023-11-21T11:26:15;11.27;;;5.63;;
23187;SDS011;11762;59.878;17.686;2023-11-21T11:28:51;11.40;;;5.33;;
23187;SDS011;11762;59.878;17.686;2023-11-21T11:31:29;10.40;;;5.07;;
23187;SDS011;11762;59.878;17.686;2023-11-21T11:34:06;16.10;;;6.13;;
23187;SDS011;11762;59.878;17.686;2023-11-21T11:36:47;12.20;;;5.53;;
23187;SDS011;11762;59.878;17.686;2023-11-21T11:39:26;9.47;;;5.50;;
23187;SDS011;11762;59.878;17.686;2023-11-21T11:41:55;13.17;;;4.90;;
23187;SDS011;11762;59.878;17.686;2023-11-21T11:47:21;10.60;;;5.60;;
23187;SDS011;11762;59.878;17.686;2023-11-21T11:49:56;9.63;;;4.87;;
23187;SDS011;11762;59.878;17.686;2023-11-21T11:52:33;14.83;;;5.27;;
23187;SDS011;11762;59.878;17.686;2023-11-21T11:55:01;10.60;;;5.43;;
23187;SDS011;11762;59.878;17.686;2023-11-21T11:57:29;10.73;;;5.03;;
23187;SDS011;11762;59.878;17.686;2023-11-21T12:00:16;10.70;;;5.43;;
23187;SDS011;11762;59.878;17.686;2023-11-21T12:02:50;9.47;;;5.33;;
23187;SDS011;11762;59.878;17.686;2023-11-21T12:05:19;11.20;;;5.40;;
23187;SDS011;11762;59.878;17.686;2023-11-21T12:07:50;9.20;;;4.60;;
23187;SDS011;11762;59.878;17.686;2023-11-21T12:10:19;10.87;;;5.30;;
23187;SDS011;11762;59.878;17.686;2023-11-21T12:12:50;12.33;;;6.33;;
23187;SDS011;11762;59.878;17.686;2023-11-21T12:15:18;27.60;;;13.23;;
23187;SDS011;11762;59.878;17.686;2023-11-21T12:17:46;21.40;;;9.93;;
23187;SDS011;11762;59.878;17.686;2023-11-21T12:20:16;22.93;;;11.47;;
23187;SDS011;11762;59.878;17.686;2023-11-21T12:22:46;27.67;;;12.97;;
23187;SDS011;11762;59.878;17.686;2023-11-21T12:25:16;34.60;;;15.63;;
23187;SDS011;11762;59.878;17.686;2023-11-21T12:27:45;26.53;;;12.87;;
23187;SDS011;11762;59.878;17.686;2023-11-21T12:30:14;31.33;;;14.60;;
23187;SDS011;11762;59.878;17.686;2023-11-21T12:32:42;57.57;;;26.90;;
23187;SDS011;11762;59.878;17.686;2023-11-21T12:35:11;42.97;;;19.90;;
23187;SDS011;11762;59.878;17.686;2023-11-21T12:37:38;61.27;;;29.27;;
23187;SDS011;11762;59.878;17.686;2023-11-21T12:40:08;40.23;;;18.03;;
23187;SDS011;11762;59.878;17.686;2023-11-21T12:42:39;65.23;;;31.40;;
23187;SDS011;11762;59.878;17.686;2023-11-21T12:45:08;33.63;;;18.10;;
23187;SDS011;11762;59.878;17.686;2023-11-21T12:47:41;28.57;;;14.13;;
23187;SDS011;11762;59.878;17.686;2023-11-21T12:50:08;23.20;;;9.83;;
23187;SDS011;11762;59.878;17.686;2023-11-21T12:52:40;21.10;;;8.50;;
23187;SDS011;11762;59.878;17.686;2023-11-21T12:55:09;33.67;;;9.60;;
23187;SDS011;11762;59.878;17.686;2023-11-21T12:57:42;15.20;;;7.63;;
23187;SDS011;11762;59.878;17.686;2023-11-21T13:00:10;26.10;;;14.50;;
23187;SDS011;11762;59.878;17.686;2023-11-21T13:02:50;12.57;;;6.13;;
23187;SDS011;11762;59.878;17.686;2023-11-21T13:05:23;15.93;;;7.07;;
23187;SDS011;11762;59.878;17.686;2023-11-21T13:07:51;20.80;;;8.77;;
23187;SDS011;11762;59.878;17.686;2023-11-21T13:10:19;14.27;;;6.53;;
23187;SDS011;11762;59.878;17.686;2023-11-21T13:12:55;14.23;;;6.80;;
23187;SDS011;11762;59.878;17.686;2023-11-21T13:15:25;13.27;;;6.27;;
23187;SDS011;11762;59.878;17.686;2023-11-21T13:17:53;23.43;;;9.50;;
23187;SDS011;11762;59.878;17.686;2023-11-21T13:20:21;22.47;;;9.87;;
23187;SDS011;11762;59.878;17.686;2023-11-21T13:22:49;19.73;;;8.70;;
23187;SDS011;11762;59.878;17.686;2023-11-21T13:25:19;13.10;;;5.10;;
23187;SDS011;11762;59.878;17.686;2023-11-21T13:27:47;13.87;;;5.97;;
23187;SDS011;11762;59.878;17.686;2023-11-21T13:30:16;10.23;;;5.63;;
23187;SDS011;11762;59.878;17.686;2023-11-21T13:32:48;14.47;;;6.80;;
23187;SDS011;11762;59.878;17.686;2023-11-21T13:35:16;15.67;;;4.93;;
23187;SDS011;11762;59.878;17.686;2023-11-21T13:37:49;10.97;;;5.07;;
23187;SDS011;11762;59.878;17.686;2023-11-21T13:40:21;15.07;;;5.53;;
23187;SDS011;11762;59.878;17.686;2023-11-21T13:42:51;19.90;;;8.50;;
23187;SDS011;11762;59.878;17.686;2023-11-21T13:45:25;8.47;;;5.27;;
23187;SDS011;11762;59.878;17.686;2023-11-21T13:47:53;12.57;;;5.97;;
23187;SDS011;11762;59.878;17.686;2023-11-21T13:50:23;10.93;;;5.33;;
23187;SDS011;11762;59.878;17.686;2023-11-21T13:52:55;14.03;;;6.33;;
23187;SDS011;11762;59.878;17.686;2023-11-21T13:55:23;12.87;;;5.00;;
23187;SDS011;11762;59.878;17.686;2023-11-21T13:57:50;8.00;;;4.67;;
23187;SDS011;11762;59.878;17.686;2023-11-21T14:00:18;11.13;;;5.37;;
23187;SDS011;11762;59.878;17.686;2023-11-21T14:03:08;9.25;;;5.30;;
23187;SDS011;11762;59.878;17.686;2023-11-21T14:05:42;8.60;;;4.57;;
23187;SDS011;11762;59.878;17.686;2023-11-21T14:08:11;8.87;;;4.73;;
23187;SDS011;11762;59.878;17.686;2023-11-21T14:10:41;8.93;;;3.80;;
23187;SDS011;11762;59.878;17.686;2023-11-21T14:13:10;8.27;;;3.83;;
23187;SDS011;11762;59.878;17.686;2023-11-21T14:15:38;8.03;;;4.40;;
23187;SDS011;11762;59.878;17.686;2023-11-21T14:18:11;11.37;;;4.10;;
23187;SDS011;11762;59.878;17.686;2023-11-21T14:20:42;7.97;;;4.20;;
23187;SDS011;11762;59.878;17.686;2023-11-21T14:23:09;16.90;;;8.40;;
23187;SDS011;11762;59.878;17.686;2023-11-21T14:25:37;11.63;;;5.73;;
23187;SDS011;11762;59.878;17.686;2023-11-21T14:28:04;8.10;;;4.70;;
23187;SDS011;11762;59.878;17.686;2023-11-21T14:30:31;12.93;;;4.60;;
23187;SDS011;11762;59.878;17.686;2023-11-21T14:33:01;10.07;;;4.17;;
23187;SDS011;11762;59.878;17.686;2023-11-21T14:35:30;11.33;;;3.93;;
23187;SDS011;11762;59.878;17.686;2023-11-21T14:37:57;11.77;;;4.23;;
23187;SDS011;11762;59.878;17.686;2023-11-21T14:40:25;8.40;;;3.57;;
23187;SDS011;11762;59.878;17.686;2023-11-21T14:42:58;11.83;;;4.00;;
23187;SDS011;11762;59.878;17.686;2023-11-21T14:45:25;9.33;;;3.60;;
23187;SDS011;11762;59.878;17.686;2023-11-21T14:47:54;6.87;;;3.60;;
23187;SDS011;11762;59.878;17.686;2023-11-21T14:50:32;8.60;;;3.63;;
23187;SDS011;11762;59.878;17.686;2023-11-21T14:53:12;10.73;;;3.63;;
23187;SDS011;11762;59.878;17.686;2023-11-21T14:55:38;7.17;;;3.33;;
23187;SDS011;11762;59.878;17.686;2023-11-21T14:58:19;9.37;;;3.47;;
23187;SDS011;11762;59.878;17.686;2023-11-21T15:00:52;5.57;;;3.10;;
23187;SDS011;11762;59.878;17.686;2023-11-21T15:03:23;8.77;;;3.70;;
23187;SDS011;11762;59.878;17.686;2023-11-21T15:06:09;7.00;;;3.40;;
23187;SDS011;11762;59.878;17.686;2023-11-21T15:08:48;4.90;;;2.70;;
23187;SDS011;11762;59.878;17.686;2023-11-21T15:11:33;5.70;;;2.93;;
23187;SDS011;11762;59.878;17.686;2023-11-21T15:13:59;6.70;;;2.97;;
23187;SDS011;11762;59.878;17.686;2023-11-21T15:16:31;6.13;;;2.73;;
23187;SDS011;11762;59.878;17.686;2023-11-21T15:18:59;3.73;;;2.20;;
23187;SDS011;11762;59.878;17.686;2023-11-21T15:21:27;7.50;;;3.13;;
23187;SDS011;11762;59.878;17.686;2023-11-21T15:23:54;5.27;;;2.70;;
23187;SDS011;11762;59.878;17.686;2023-11-21T15:26:21;5.57;;;2.63;;
23187;SDS011;11762;59.878;17.686;2023-11-21T15:28:48;5.83;;;3.00;;
23187;SDS011;11762;59.878;17.686;2023-11-21T15:31:15;8.23;;;2.77;;
23187;SDS011;11762;59.878;17.686;2023-11-21T15:33:46;6.73;;;2.90;;
23187;SDS011;11762;59.878;17.686;2023-11-21T15:36:13;8.70;;;2.70;;
23187;SDS011;11762;59.878;17.686;2023-11-21T15:38:41;15.90;;;2.80;;
23187;SDS011;11762;59.878;17.686;2023-11-21T15:41:09;4.67;;;2.77;;
23187;SDS011;11762;59.878;17.686;2023-11-21T15:43:36;4.83;;;2.47;;
23187;SDS011;11762;59.878;17.686;2023-11-21T15:46:03;5.43;;;2.53;;
23187;SDS011;11762;59.878;17.686;2023-11-21T15:48:32;6.20;;;2.43;;
23187;SDS011;11762;59.878;17.686;2023-11-21T15:51:00;5.40;;;2.37;;
23187;SDS011;11762;59.878;17.686;2023-11-21T15:53:29;7.73;;;2.33;;
23187;SDS011;11762;59.878;17.686;2023-11-21T15:55:58;4.73;;;2.23;;
23187;SDS011;11762;59.878;17.686;2023-11-21T15:58:25;4.77;;;2.00;;
23187;SDS011;11762;59.878;17.686;2023-11-21T16:00:52;6.83;;;1.90;;
23187;SDS011;11762;59.878;17.686;2023-11-21T16:03:21;4.13;;;1.90;;
23187;SDS011;11762;59.878;17.686;2023-11-21T16:05:49;3.73;;;2.10;;
23187;SDS011;11762;59.878;17.686;2023-11-21T16:08:16;4.67;;;1.87;;
23187;SDS011;11762;59.878;17.686;2023-11-21T16:10:43;3.00;;;1.70;;
23187;SDS011;11762;59.878;17.686;2023-11-21T16:13:12;4.73;;;1.80;;
23187;SDS011;11762;59.878;17.686;2023-11-21T16:15:39;2.87;;;1.57;;
23187;SDS011;11762;59.878;17.686;2023-11-21T16:18:08;3.50;;;1.73;;
23187;SDS011;11762;59.878;17.686;2023-11-21T16:20:35;4.10;;;1.67;;
23187;SDS011;11762;59.878;17.686;2023-11-21T16:23:02;5.77;;;1.93;;
23187;SDS011;11762;59.878;17.686;2023-11-21T16:25:29;5.07;;;1.70;;
23187;SDS011;11762;59.878;17.686;2023-11-21T16:27:56;3.30;;;1.70;;
23187;SDS011;11762;59.878;17.686;2023-11-21T16:30:30;4.43;;;1.87;;
23187;SDS011;11762;59.878;17.686;2023-11-21T16:32:59;6.53;;;1.80;;
23187;SDS011;11762;59.878;17.686;2023-11-21T16:35:26;4.90;;;1.70;;
23187;SDS011;11762;59.878;17.686;2023-11-21T16:37:52;4.43;;;1.93;;
23187;SDS011;11762;59.878;17.686;2023-11-21T16:40:19;3.83;;;1.67;;
23187;SDS011;11762;59.878;17.686;2023-11-21T16:42:46;5.40;;;2.17;;
23187;SDS011;11762;59.878;17.686;2023-11-21T16:45:13;4.97;;;2.37;;
23187;SDS011;11762;59.878;17.686;2023-11-21T16:47:43;3.73;;;1.80;;
23187;SDS011;11762;59.878;17.686;2023-11-21T16:50:10;6.60;;;2.90;;
23187;SDS011;11762;59.878;17.686;2023-11-21T16:52:38;5.13;;;2.40;;
23187;SDS011;11762;59.878;17.686;2023-11-21T16:55:08;3.33;;;2.07;;
23187;SDS011;11762;59.878;17.686;2023-11-21T16:57:36;8.17;;;3.00;;
23187;SDS011;11762;59.878;17.686;2023-11-21T17:00:04;5.70;;;2.70;;
23187;SDS011;11762;59.878;17.686;2023-11-21T17:02:36;6.93;;;3.30;;
23187;SDS011;11762;59.878;17.686;2023-11-21T17:05:06;12.83;;;4.27;;
23187;SDS011;11762;59.878;17.686;2023-11-21T17:07:33;5.60;;;2.50;;
23187;SDS011;11762;59.878;17.686;2023-11-21T17:10:00;9.90;;;3.43;;
23187;SDS011;11762;59.878;17.686;2023-11-21T17:12:28;14.57;;;6.07;;
23187;SDS011;11762;59.878;17.686;2023-11-21T17:14:55;29.10;;;10.70;;
23187;SDS011;11762;59.878;17.686;2023-11-21T17:17:22;20.73;;;8.03;;
23187;SDS011;11762;59.878;17.686;2023-11-21T17:19:49;12.07;;;5.80;;
23187;SDS011;11762;59.878;17.686;2023-11-21T17:22:17;10.77;;;4.73;;
23187;SDS011;11762;59.878;17.686;2023-11-21T17:24:45;7.80;;;4.37;;
23187;SDS011;11762;59.878;17.686;2023-11-21T17:27:11;12.17;;;6.57;;
23187;SDS011;11762;59.878;17.686;2023-11-21T17:29:38;13.93;;;8.30;;
23187;SDS011;11762;59.878;17.686;2023-11-21T17:32:05;16.83;;;8.57;;
23187;SDS011;11762;59.878;17.686;2023-11-21T17:34:33;10.60;;;4.83;;
23187;SDS011;11762;59.878;17.686;2023-11-21T17:36:59;11.83;;;5.57;;
23187;SDS011;11762;59.878;17.686;2023-11-21T17:39:29;9.50;;;5.00;;
23187;SDS011;11762;59.878;17.686;2023-11-21T17:41:56;9.37;;;4.60;;
23187;SDS011;11762;59.878;17.686;2023-11-21T17:44:23;8.87;;;4.40;;
23187;SDS011;11762;59.878;17.686;2023-11-21T17:46:50;12.17;;;4.93;;
23187;SDS011;11762;59.878;17.686;2023-11-21T17:49:17;7.83;;;4.47;;
23187;SDS011;11762;59.878;17.686;2023-11-21T17:51:44;12.43;;;5.60;;
23187;SDS011;11762;59.878;17.686;2023-11-21T17:54:12;8.70;;;4.83;;
23187;SDS011;11762;59.878;17.686;2023-11-21T17:56:40;9.67;;;5.33;;
23187;SDS011;11762;59.878;17.686;2023-11-21T17:59:07;13.93;;;5.73;;
23187;SDS011;11762;59.878;17.686;2023-11-21T18:01:37;11.10;;;5.70;;
23187;SDS011;11762;59.878;17.686;2023-11-21T18:04:04;9.33;;;5.67;;
23187;SDS011;11762;59.878;17.686;2023-11-21T18:06:31;14.67;;;5.77;;
23187;SDS011;11762;59.878;17.686;2023-11-21T18:08:59;9.77;;;4.90;;
23187;SDS011;11762;59.878;17.686;2023-11-21T18:11:28;9.93;;;4.90;;
23187;SDS011;11762;59.878;17.686;2023-11-21T18:13:57;11.80;;;5.73;;
23187;SDS011;11762;59.878;17.686;2023-11-21T18:16:24;12.27;;;5.87;;
23187;SDS011;11762;59.878;17.686;2023-11-21T18:18:51;14.47;;;7.87;;
23187;SDS011;11762;59.878;17.686;2023-11-21T18:21:18;13.50;;;9.70;;
23187;SDS011;11762;59.878;17.686;2023-11-21T18:23:45;13.57;;;7.33;;
23187;SDS011;11762;59.878;17.686;2023-11-21T18:26:15;9.30;;;5.67;;
23187;SDS011;11762;59.878;17.686;2023-11-21T18:28:43;9.67;;;4.90;;
23187;SDS011;11762;59.878;17.686;2023-11-21T18:31:11;9.27;;;5.17;;
23187;SDS011;11762;59.878;17.686;2023-11-21T18:33:39;12.67;;;5.60;;
23187;SDS011;11762;59.878;17.686;2023-11-21T18:36:07;10.27;;;5.00;;
23187;SDS011;11762;59.878;17.686;2023-11-21T18:38:34;9.17;;;4.97;;
23187;SDS011;11762;59.878;17.686;2023-11-21T18:41:02;10.97;;;5.20;;
23187;SDS011;11762;59.878;17.686;2023-11-21T18:43:28;10.60;;;5.87;;
23187;SDS011;11762;59.878;17.686;2023-11-21T18:45:56;15.70;;;7.60;;
23187;SDS011;11762;59.878;17.686;2023-11-21T18:48:24;16.40;;;8.37;;
23187;SDS011;11762;59.878;17.686;2023-11-21T18:50:51;17.20;;;8.57;;
23187;SDS011;11762;59.878;17.686;2023-11-21T18:53:20;14.87;;;7.63;;
23187;SDS011;11762;59.878;17.686;2023-11-21T18:55:47;9.67;;;6.27;;
23187;SDS011;11762;59.878;17.686;2023-11-21T18:58:14;14.17;;;6.90;;
23187;SDS011;11762;59.878;17.686;2023-11-21T19:00:41;12.97;;;6.57;;
23187;SDS011;11762;59.878;17.686;2023-11-21T19:03:08;16.60;;;6.80;;
23187;SDS011;11762;59.878;17.686;2023-11-21T19:05:37;14.37;;;7.10;;
23187;SDS011;11762;59.878;17.686;2023-11-21T19:08:05;9.33;;;5.83;;
23187;SDS011;11762;59.878;17.686;2023-11-21T19:10:32;10.57;;;7.07;;
23187;SDS011;11762;59.878;17.686;2023-11-21T19:12:59;9.70;;;6.10;;
23187;SDS011;11762;59.878;17.686;2023-11-21T19:15:28;12.20;;;5.73;;
23187;SDS011;11762;59.878;17.686;2023-11-21T19:17:55;13.00;;;6.07;;
23187;SDS011;11762;59.878;17.686;2023-11-21T19:20:23;11.47;;;6.47;;
23187;SDS011;11762;59.878;17.686;2023-11-21T19:22:52;11.27;;;5.70;;
23187;SDS011;11762;59.878;17.686;2023-11-21T19:25:20;12.07;;;5.17;;
23187;SDS011;11762;59.878;17.686;2023-11-21T19:27:48;12.83;;;6.93;;
23187;SDS011;11762;59.878;17.686;2023-11-21T19:30:15;10.73;;;6.17;;
23187;SDS011;11762;59.878;17.686;2023-11-21T19:32:43;13.87;;;6.70;;
23187;SDS011;11762;59.878;17.686;2023-11-21T19:35:10;14.10;;;7.10;;
23187;SDS011;11762;59.878;17.686;2023-11-21T19:37:37;13.20;;;6.80;;
23187;SDS011;11762;59.878;17.686;2023-11-21T19:40:06;10.37;;;5.90;;
23187;SDS011;11762;59.878;17.686;2023-11-21T19:42:33;9.70;;;5.13;;
23187;SDS011;11762;59.878;17.686;2023-11-21T19:45:01;11.03;;;5.17;;
23187;SDS011;11762;59.878;17.686;2023-11-21T19:47:29;10.73;;;5.47;;
23187;SDS011;11762;59.878;17.686;2023-11-21T19:49:58;10.70;;;4.97;;
23187;SDS011;11762;59.878;17.686;2023-11-21T19:52:25;11.77;;;5.90;;
23187;SDS011;11762;59.878;17.686;2023-11-21T19:54:54;10.03;;;5.63;;
23187;SDS011;11762;59.878;17.686;2023-11-21T19:57:22;12.27;;;5.80;;
23187;SDS011;11762;59.878;17.686;2023-11-21T19:59:49;12.23;;;5.77;;
23187;SDS011;11762;59.878;17.686;2023-11-21T20:02:16;11.43;;;5.90;;
23187;SDS011;11762;59.878;17.686;2023-11-21T20:04:43;15.77;;;7.07;;
23187;SDS011;11762;59.878;17.686;2023-11-21T20:07:11;13.13;;;7.00;;
23187;SDS011;11762;59.878;17.686;2023-11-21T20:09:40;11.23;;;6.00;;
23187;SDS011;11762;59.878;17.686;2023-11-21T20:12:07;11.07;;;6.23;;
23187;SDS011;11762;59.878;17.686;2023-11-21T20:14:36;14.57;;;5.73;;
23187;SDS011;11762;59.878;17.686;2023-11-21T20:17:03;11.93;;;5.90;;
23187;SDS011;11762;59.878;17.686;2023-11-21T20:19:30;13.23;;;5.80;;
23187;SDS011;11762;59.878;17.686;2023-11-21T20:21:57;14.93;;;6.90;;
23187;SDS011;11762;59.878;17.686;2023-11-21T20:24:24;12.63;;;6.07;;
23187;SDS011;11762;59.878;17.686;2023-11-21T20:26:51;13.63;;;5.93;;
23187;SDS011;11762;59.878;17.686;2023-11-21T20:29:18;11.87;;;6.33;;
23187;SDS011;11762;59.878;17.686;2023-11-21T20:31:49;12.97;;;6.83;;
23187;SDS011;11762;59.878;17.686;2023-11-21T20:34:16;11.37;;;6.37;;
23187;SDS011;11762;59.878;17.686;2023-11-21T20:36:46;13.00;;;6.43;;
23187;SDS011;11762;59.878;17.686;2023-11-21T20:39:13;74.07;;;27.10;;
23187;SDS011;11762;59.878;17.686;2023-11-21T20:41:41;71.27;;;25.43;;
23187;SDS011;11762;59.878;17.686;2023-11-21T20:44:08;62.13;;;21.23;;
23187;SDS011;11762;59.878;17.686;2023-11-21T20:46:38;49.00;;;17.73;;
23187;SDS011;11762;59.878;17.686;2023-11-21T20:49:08;37.70;;;13.63;;
23187;SDS011;11762;59.878;17.686;2023-11-21T20:51:35;25.43;;;11.40;;
23187;SDS011;11762;59.878;17.686;2023-11-21T20:54:02;17.50;;;8.33;;
23187;SDS011;11762;59.878;17.686;2023-11-21T20:56:30;15.03;;;7.87;;
23187;SDS011;11762;59.878;17.686;2023-11-21T20:58:57;16.47;;;8.03;;
23187;SDS011;11762;59.878;17.686;2023-11-21T21:01:30;15.63;;;8.20;;
23187;SDS011;11762;59.878;17.686;2023-11-21T21:03:57;14.40;;;7.03;;
23187;SDS011;11762;59.878;17.686;2023-11-21T21:06:25;13.57;;;6.83;;
23187;SDS011;11762;59.878;17.686;2023-11-21T21:08:52;13.77;;;7.40;;
23187;SDS011;11762;59.878;17.686;2023-11-21T21:11:19;11.97;;;6.43;;
23187;SDS011;11762;59.878;17.686;2023-11-21T21:13:47;12.87;;;7.00;;
23187;SDS011;11762;59.878;17.686;2023-11-21T21:16:18;13.63;;;6.50;;
23187;SDS011;11762;59.878;17.686;2023-11-21T21:18:50;9.70;;;5.80;;